Mud Lake, Idaho
Current Conditions -  °F | °C
As of 2:53 AM on Thursday 23 Oct 2014 (Local Time) from KIDA Reporting Station
Overcast Overcast  
Wind Chill: 40°   Ceiling: 11000
Heat Index: 40°   Visibility: 10mi
Dew Point: 33°   Wind: 0mph
Humidity: 77%   Direction: NA
Pressure: 30.13"   Gusts: NA
Location:  43.8119°N, 112.46°W
Report Text: KIDA 230853Z 00000KT 10SM OVC110 04/01 A3013 RMK AO2 SLP196 T00440006 55002
Loading
Personal Weather Stations






























Interactive Weather Map
Tropical Storm Tracking
New forecast layout! Learn more

10-Day Weather Forecast

Advertisements
Track Severe Weather on mobile